sensor_id;sensor_type;location;lat;lon;timestamp;pressure;altitude;pressure_sealevel;temperature;humidity
54248;BME280;40161;39.768;2.722;2022-12-07T00:01:28;101173.03;;;10.80;100.00
54248;BME280;40161;39.768;2.722;2022-12-07T00:03:54;101160.78;;;10.74;100.00
54248;BME280;40161;39.768;2.722;2022-12-07T00:06:22;101190.53;;;11.07;100.00
54248;BME280;40161;39.768;2.722;2022-12-07T00:08:48;101172.88;;;10.88;100.00
54248;BME280;40161;39.768;2.722;2022-12-07T00:11:15;101204.19;;;11.03;100.00
54248;BME280;40161;39.768;2.722;2022-12-07T00:13:43;101155.22;;;10.89;100.00
54248;BME280;40161;39.768;2.722;2022-12-07T00:16:14;101202.56;;;11.18;100.00
54248;BME280;40161;39.768;2.722;2022-12-07T00:18:40;101185.22;;;11.14;100.00
54248;BME280;40161;39.768;2.722;2022-12-07T00:21:10;101161.44;;;10.86;100.00
54248;BME280;40161;39.768;2.722;2022-12-07T00:23:36;101151.91;;;10.49;100.00
54248;BME280;40161;39.768;2.722;2022-12-07T00:26:14;101182.38;;;10.59;100.00
54248;BME280;40161;39.768;2.722;2022-12-07T00:28:39;101179.53;;;10.72;100.00
54248;BME280;40161;39.768;2.722;2022-12-07T00:31:08;101196.00;;;10.87;100.00
54248;BME280;40161;39.768;2.722;2022-12-07T00:33:35;101183.72;;;11.01;100.00
54248;BME280;40161;39.768;2.722;2022-12-07T00:36:02;101145.59;;;10.80;100.00
54248;BME280;40161;39.768;2.722;2022-12-07T00:38:30;101182.03;;;11.12;100.00
54248;BME280;40161;39.768;2.722;2022-12-07T00:41:02;101168.56;;;11.07;100.00
54248;BME280;40161;39.768;2.722;2022-12-07T00:43:28;101165.19;;;10.78;100.00
54248;BME280;40161;39.768;2.722;2022-12-07T00:45:54;101156.31;;;10.69;100.00
54248;BME280;40161;39.768;2.722;2022-12-07T00:48:20;101151.47;;;10.62;100.00
54248;BME280;40161;39.768;2.722;2022-12-07T00:50:46;101149.63;;;10.51;100.00
54248;BME280;40161;39.768;2.722;2022-12-07T00:53:12;101135.53;;;10.52;100.00
54248;BME280;40161;39.768;2.722;2022-12-07T00:55:38;101123.84;;;10.55;100.00
54248;BME280;40161;39.768;2.722;2022-12-07T00:58:04;101147.84;;;10.74;100.00
54248;BME280;40161;39.768;2.722;2022-12-07T01:00:30;101159.38;;;10.99;100.00
54248;BME280;40161;39.768;2.722;2022-12-07T01:02:56;101139.56;;;10.90;100.00
54248;BME280;40161;39.768;2.722;2022-12-07T01:05:21;101169.81;;;11.09;100.00
54248;BME280;40161;39.768;2.722;2022-12-07T01:07:47;101169.19;;;11.00;100.00
54248;BME280;40161;39.768;2.722;2022-12-07T01:10:14;101178.91;;;11.13;100.00
54248;BME280;40161;39.768;2.722;2022-12-07T01:12:40;101168.72;;;11.14;100.00
54248;BME280;40161;39.768;2.722;2022-12-07T01:15:07;101163.38;;;11.21;100.00
54248;BME280;40161;39.768;2.722;2022-12-07T01:17:33;101158.34;;;11.23;100.00
54248;BME280;40161;39.768;2.722;2022-12-07T01:19:59;101169.47;;;11.30;100.00
54248;BME280;40161;39.768;2.722;2022-12-07T01:22:24;101164.47;;;11.16;100.00
54248;BME280;40161;39.768;2.722;2022-12-07T01:24:50;101162.50;;;11.17;100.00
54248;BME280;40161;39.768;2.722;2022-12-07T01:27:15;101155.78;;;11.14;100.00
54248;BME280;40161;39.768;2.722;2022-12-07T01:29:41;101136.94;;;11.13;100.00
54248;BME280;40161;39.768;2.722;2022-12-07T01:32:07;101141.00;;;11.19;100.00
54248;BME280;40161;39.768;2.722;2022-12-07T01:34:32;101137.00;;;11.16;100.00
54248;BME280;40161;39.768;2.722;2022-12-07T01:36:58;101159.66;;;11.29;100.00
54248;BME280;40161;39.768;2.722;2022-12-07T01:39:24;101141.41;;;11.21;100.00
54248;BME280;40161;39.768;2.722;2022-12-07T01:41:50;101143.03;;;11.22;100.00
54248;BME280;40161;39.768;2.722;2022-12-07T01:44:23;101143.16;;;11.29;100.00
54248;BME280;40161;39.768;2.722;2022-12-07T01:46:52;101144.97;;;11.41;100.00
54248;BME280;40161;39.768;2.722;2022-12-07T01:49:31;101141.94;;;11.46;100.00
54248;BME280;40161;39.768;2.722;2022-12-07T01:52:17;101136.38;;;11.43;100.00
54248;BME280;40161;39.768;2.722;2022-12-07T01:54:45;101134.97;;;11.52;100.00
54248;BME280;40161;39.768;2.722;2022-12-07T01:57:14;101124.94;;;11.40;100.00
54248;BME280;40161;39.768;2.722;2022-12-07T01:59:43;101090.50;;;11.08;100.00
54248;BME280;40161;39.768;2.722;2022-12-07T02:02:17;101125.59;;;11.34;100.00
54248;BME280;40161;39.768;2.722;2022-12-07T02:04:43;101135.50;;;11.38;100.00
54248;BME280;40161;39.768;2.722;2022-12-07T02:07:09;101128.94;;;11.43;100.00
54248;BME280;40161;39.768;2.722;2022-12-07T02:09:34;101092.16;;;11.32;100.00
54248;BME280;40161;39.768;2.722;2022-12-07T02:12:00;101123.56;;;11.50;100.00
54248;BME280;40161;39.768;2.722;2022-12-07T02:14:26;101132.41;;;11.40;100.00
54248;BME280;40161;39.768;2.722;2022-12-07T02:22:59;101140.91;;;11.54;100.00
54248;BME280;40161;39.768;2.722;2022-12-07T02:25:52;101132.81;;;11.61;100.00
54248;BME280;40161;39.768;2.722;2022-12-07T02:30:49;101085.81;;;11.28;100.00
54248;BME280;40161;39.768;2.722;2022-12-07T02:33:31;101057.91;;;11.06;100.00
54248;BME280;40161;39.768;2.722;2022-12-07T02:36:09;101093.78;;;11.33;100.00
54248;BME280;40161;39.768;2.722;2022-12-07T02:38:45;101061.31;;;11.19;100.00
54248;BME280;40161;39.768;2.722;2022-12-07T02:41:17;101083.66;;;11.37;100.00
54248;BME280;40161;39.768;2.722;2022-12-07T02:44:02;101105.78;;;11.44;100.00
54248;BME280;40161;39.768;2.722;2022-12-07T02:46:34;101120.81;;;11.50;100.00
54248;BME280;40161;39.768;2.722;2022-12-07T02:49:03;101123.41;;;11.62;100.00
54248;BME280;40161;39.768;2.722;2022-12-07T02:51:30;101121.44;;;11.63;100.00
54248;BME280;40161;39.768;2.722;2022-12-07T02:53:56;101068.25;;;11.32;100.00
54248;BME280;40161;39.768;2.722;2022-12-07T03:05:05;101130.94;;;11.65;100.00
54248;BME280;40161;39.768;2.722;2022-12-07T03:12:48;101130.72;;;11.55;100.00
54248;BME280;40161;39.768;2.722;2022-12-07T03:15:27;101111.84;;;11.53;100.00
54248;BME280;40161;39.768;2.722;2022-12-07T03:17:55;101083.72;;;11.40;100.00
54248;BME280;40161;39.768;2.722;2022-12-07T03:20:24;101084.56;;;11.45;100.00
54248;BME280;40161;39.768;2.722;2022-12-07T03:22:52;101071.28;;;11.27;100.00
54248;BME280;40161;39.768;2.722;2022-12-07T03:25:19;101092.25;;;11.35;100.00
54248;BME280;40161;39.768;2.722;2022-12-07T03:27:55;101115.75;;;11.52;100.00
54248;BME280;40161;39.768;2.722;2022-12-07T03:30:35;101062.03;;;11.16;100.00
54248;BME280;40161;39.768;2.722;2022-12-07T03:33:15;101073.19;;;11.23;100.00
54248;BME280;40161;39.768;2.722;2022-12-07T03:35:49;101097.53;;;11.44;100.00
54248;BME280;40161;39.768;2.722;2022-12-07T03:38:24;101061.31;;;11.19;100.00
54248;BME280;40161;39.768;2.722;2022-12-07T03:40:59;101081.56;;;11.30;100.00
54248;BME280;40161;39.768;2.722;2022-12-07T03:43:28;101097.38;;;11.37;100.00
54248;BME280;40161;39.768;2.722;2022-12-07T03:46:20;101111.28;;;11.44;100.00
54248;BME280;40161;39.768;2.722;2022-12-07T03:48:59;101109.91;;;11.54;100.00
54248;BME280;40161;39.768;2.722;2022-12-07T03:51:54;101111.19;;;11.60;100.00
54248;BME280;40161;39.768;2.722;2022-12-07T03:54:39;101114.88;;;11.68;100.00
54248;BME280;40161;39.768;2.722;2022-12-07T03:57:08;101103.09;;;11.67;100.00
54248;BME280;40161;39.768;2.722;2022-12-07T03:59:34;101062.25;;;11.46;100.00
54248;BME280;40161;39.768;2.722;2022-12-07T04:02:03;101111.94;;;11.80;100.00
54248;BME280;40161;39.768;2.722;2022-12-07T04:04:29;101088.75;;;11.58;100.00
54248;BME280;40161;39.768;2.722;2022-12-07T04:06:55;101108.44;;;11.60;100.00
54248;BME280;40161;39.768;2.722;2022-12-07T04:09:22;101074.56;;;11.33;100.00
54248;BME280;40161;39.768;2.722;2022-12-07T04:11:47;101110.75;;;11.58;100.00
54248;BME280;40161;39.768;2.722;2022-12-07T04:14:13;101105.31;;;11.61;100.00
54248;BME280;40161;39.768;2.722;2022-12-07T04:16:55;101105.63;;;11.56;100.00
54248;BME280;40161;39.768;2.722;2022-12-07T04:19:26;101089.34;;;11.48;100.00
54248;BME280;40161;39.768;2.722;2022-12-07T04:21:52;101094.97;;;11.55;100.00
54248;BME280;40161;39.768;2.722;2022-12-07T04:24:19;101091.13;;;11.59;100.00
54248;BME280;40161;39.768;2.722;2022-12-07T04:26:45;101084.16;;;11.43;100.00
54248;BME280;40161;39.768;2.722;2022-12-07T04:29:11;101108.88;;;11.62;100.00
54248;BME280;40161;39.768;2.722;2022-12-07T04:31:37;101110.16;;;11.68;100.00
54248;BME280;40161;39.768;2.722;2022-12-07T04:34:03;101109.44;;;11.71;100.00
54248;BME280;40161;39.768;2.722;2022-12-07T04:36:29;101111.34;;;11.67;100.00
54248;BME280;40161;39.768;2.722;2022-12-07T04:38:55;101101.84;;;11.64;100.00
54248;BME280;40161;39.768;2.722;2022-12-07T04:41:21;101110.28;;;11.75;100.00
54248;BME280;40161;39.768;2.722;2022-12-07T04:43:55;101109.63;;;11.82;100.00
54248;BME280;40161;39.768;2.722;2022-12-07T04:46:22;101097.56;;;11.86;100.00
54248;BME280;40161;39.768;2.722;2022-12-07T04:48:48;101109.91;;;11.96;100.00
54248;BME280;40161;39.768;2.722;2022-12-07T04:51:18;101116.53;;;11.92;100.00
54248;BME280;40161;39.768;2.722;2022-12-07T04:53:44;101118.78;;;11.86;100.00
54248;BME280;40161;39.768;2.722;2022-12-07T04:56:10;101045.88;;;11.53;100.00
54248;BME280;40161;39.768;2.722;2022-12-07T04:58:35;101093.66;;;11.87;100.00
54248;BME280;40161;39.768;2.722;2022-12-07T05:01:01;101104.78;;;11.95;100.00
54248;BME280;40161;39.768;2.722;2022-12-07T05:03:26;101095.03;;;11.78;100.00
54248;BME280;40161;39.768;2.722;2022-12-07T05:05:52;101096.09;;;11.73;100.00
54248;BME280;40161;39.768;2.722;2022-12-07T05:08:17;101089.69;;;11.65;100.00
54248;BME280;40161;39.768;2.722;2022-12-07T05:10:43;101100.88;;;11.76;100.00
54248;BME280;40161;39.768;2.722;2022-12-07T05:13:09;101064.53;;;11.63;100.00
54248;BME280;40161;39.768;2.722;2022-12-07T05:15:34;101092.44;;;11.85;100.00
54248;BME280;40161;39.768;2.722;2022-12-07T05:18:00;101059.44;;;11.65;100.00
54248;BME280;40161;39.768;2.722;2022-12-07T05:20:25;101100.81;;;11.92;100.00
54248;BME280;40161;39.768;2.722;2022-12-07T05:22:51;101104.72;;;11.91;100.00
54248;BME280;40161;39.768;2.722;2022-12-07T05:25:17;101088.81;;;11.81;100.00
54248;BME280;40161;39.768;2.722;2022-12-07T05:27:43;101078.31;;;11.86;100.00
54248;BME280;40161;39.768;2.722;2022-12-07T05:30:09;101058.50;;;11.77;100.00
54248;BME280;40161;39.768;2.722;2022-12-07T05:32:35;101045.41;;;11.71;100.00
54248;BME280;40161;39.768;2.722;2022-12-07T05:35:00;101081.06;;;11.86;100.00
54248;BME280;40161;39.768;2.722;2022-12-07T05:37:26;101091.97;;;11.83;100.00
54248;BME280;40161;39.768;2.722;2022-12-07T05:39:51;101055.25;;;11.29;100.00
54248;BME280;40161;39.768;2.722;2022-12-07T05:42:17;101080.53;;;11.58;100.00
54248;BME280;40161;39.768;2.722;2022-12-07T05:44:44;101086.00;;;11.58;100.00
54248;BME280;40161;39.768;2.722;2022-12-07T05:47:11;101050.59;;;11.33;100.00
54248;BME280;40161;39.768;2.722;2022-12-07T05:49:37;101086.91;;;11.43;100.00
54248;BME280;40161;39.768;2.722;2022-12-07T05:52:03;101081.56;;;11.50;100.00
54248;BME280;40161;39.768;2.722;2022-12-07T05:54:28;101029.66;;;11.06;100.00
54248;BME280;40161;39.768;2.722;2022-12-07T05:56:54;101077.63;;;11.31;100.00
54248;BME280;40161;39.768;2.722;2022-12-07T05:59:19;101089.00;;;11.30;100.00
54248;BME280;40161;39.768;2.722;2022-12-07T06:01:59;101075.69;;;11.32;100.00
54248;BME280;40161;39.768;2.722;2022-12-07T06:04:31;101053.56;;;11.25;100.00
54248;BME280;40161;39.768;2.722;2022-12-07T06:06:57;101088.50;;;11.44;100.00
54248;BME280;40161;39.768;2.722;2022-12-07T06:09:24;101082.78;;;11.33;100.00
54248;BME280;40161;39.768;2.722;2022-12-07T06:11:50;101095.00;;;11.35;100.00
54248;BME280;40161;39.768;2.722;2022-12-07T06:14:35;101096.22;;;11.38;100.00
54248;BME280;40161;39.768;2.722;2022-12-07T06:17:01;101107.72;;;11.24;100.00
54248;BME280;40161;39.768;2.722;2022-12-07T06:19:26;101092.47;;;11.07;100.00
54248;BME280;40161;39.768;2.722;2022-12-07T06:21:52;101077.41;;;10.82;100.00
54248;BME280;40161;39.768;2.722;2022-12-07T06:24:18;101103.69;;;10.83;100.00
54248;BME280;40161;39.768;2.722;2022-12-07T06:26:44;101083.25;;;10.80;100.00
54248;BME280;40161;39.768;2.722;2022-12-07T06:29:11;101107.44;;;11.10;100.00
54248;BME280;40161;39.768;2.722;2022-12-07T06:31:37;101071.28;;;10.88;100.00
54248;BME280;40161;39.768;2.722;2022-12-07T06:34:18;101113.38;;;11.12;100.00
54248;BME280;40161;39.768;2.722;2022-12-07T06:36:44;101114.59;;;10.79;100.00
54248;BME280;40161;39.768;2.722;2022-12-07T06:39:10;101114.75;;;10.86;100.00
54248;BME280;40161;39.768;2.722;2022-12-07T06:41:37;101079.06;;;10.67;100.00
54248;BME280;40161;39.768;2.722;2022-12-07T06:44:06;101099.91;;;10.87;100.00
54248;BME280;40161;39.768;2.722;2022-12-07T06:46:32;101088.91;;;10.87;100.00
54248;BME280;40161;39.768;2.722;2022-12-07T06:48:57;101117.41;;;10.99;100.00
54248;BME280;40161;39.768;2.722;2022-12-07T06:51:23;101107.19;;;10.99;100.00
54248;BME280;40161;39.768;2.722;2022-12-07T06:53:49;101107.06;;;10.92;100.00
54248;BME280;40161;39.768;2.722;2022-12-07T06:56:15;101093.34;;;10.76;100.00
54248;BME280;40161;39.768;2.722;2022-12-07T06:58:40;101112.47;;;10.88;100.00
54248;BME280;40161;39.768;2.722;2022-12-07T07:01:14;101065.25;;;10.63;100.00
54248;BME280;40161;39.768;2.722;2022-12-07T07:03:40;101104.81;;;10.98;100.00
54248;BME280;40161;39.768;2.722;2022-12-07T07:06:06;101104.56;;;10.87;100.00
54248;BME280;40161;39.768;2.722;2022-12-07T07:08:36;101100.88;;;10.79;100.00
54248;BME280;40161;39.768;2.722;2022-12-07T07:11:02;101115.06;;;10.81;100.00
54248;BME280;40161;39.768;2.722;2022-12-07T07:13:28;101067.09;;;10.59;100.00
54248;BME280;40161;39.768;2.722;2022-12-07T07:15:54;101066.38;;;10.62;100.00
54248;BME280;40161;39.768;2.722;2022-12-07T07:18:21;101113.25;;;10.89;100.00
54248;BME280;40161;39.768;2.722;2022-12-07T07:20:46;101123.22;;;10.97;100.00
54248;BME280;40161;39.768;2.722;2022-12-07T07:23:12;101118.44;;;10.94;100.00
54248;BME280;40161;39.768;2.722;2022-12-07T07:25:37;101099.78;;;10.84;100.00
54248;BME280;40161;39.768;2.722;2022-12-07T07:28:03;101115.56;;;10.87;100.00
54248;BME280;40161;39.768;2.722;2022-12-07T07:30:29;101132.94;;;10.91;100.00
54248;BME280;40161;39.768;2.722;2022-12-07T07:32:59;101090.66;;;10.60;100.00
54248;BME280;40161;39.768;2.722;2022-12-07T07:35:25;101089.59;;;10.49;100.00
54248;BME280;40161;39.768;2.722;2022-12-07T07:37:51;101138.97;;;10.81;100.00
54248;BME280;40161;39.768;2.722;2022-12-07T07:40:17;101108.88;;;10.68;100.00
54248;BME280;40161;39.768;2.722;2022-12-07T07:42:43;101117.81;;;10.65;100.00
54248;BME280;40161;39.768;2.722;2022-12-07T07:45:08;101121.44;;;10.69;100.00
54248;BME280;40161;39.768;2.722;2022-12-07T07:47:34;101129.41;;;10.75;100.00
54248;BME280;40161;39.768;2.722;2022-12-07T07:50:00;101127.63;;;10.82;100.00
54248;BME280;40161;39.768;2.722;2022-12-07T07:52:26;101118.94;;;10.80;100.00
54248;BME280;40161;39.768;2.722;2022-12-07T07:54:51;101118.50;;;10.78;100.00
54248;BME280;40161;39.768;2.722;2022-12-07T07:57:17;101128.31;;;10.79;100.00
54248;BME280;40161;39.768;2.722;2022-12-07T07:59:43;101120.00;;;10.76;100.00
54248;BME280;40161;39.768;2.722;2022-12-07T08:02:17;101141.59;;;10.93;100.00
54248;BME280;40161;39.768;2.722;2022-12-07T08:04:43;101134.19;;;10.78;100.00
54248;BME280;40161;39.768;2.722;2022-12-07T08:07:10;101139.97;;;10.57;100.00
54248;BME280;40161;39.768;2.722;2022-12-07T08:09:36;101136.16;;;10.61;100.00
54248;BME280;40161;39.768;2.722;2022-12-07T08:12:01;101127.91;;;10.61;100.00
54248;BME280;40161;39.768;2.722;2022-12-07T08:14:27;101145.59;;;10.80;100.00
54248;BME280;40161;39.768;2.722;2022-12-07T08:16:54;101126.22;;;10.73;100.00
54248;BME280;40161;39.768;2.722;2022-12-07T08:19:20;101139.06;;;10.68;100.00
54248;BME280;40161;39.768;2.722;2022-12-07T08:21:46;101140.31;;;10.71;100.00
54248;BME280;40161;39.768;2.722;2022-12-07T08:24:12;101149.44;;;10.59;100.00
54248;BME280;40161;39.768;2.722;2022-12-07T08:26:37;101149.78;;;10.74;100.00
54248;BME280;40161;39.768;2.722;2022-12-07T08:29:03;101120.13;;;10.63;100.00
54248;BME280;40161;39.768;2.722;2022-12-07T08:31:28;101141.34;;;10.82;100.00
54248;BME280;40161;39.768;2.722;2022-12-07T08:33:55;101103.22;;;10.45;100.00
54248;BME280;40161;39.768;2.722;2022-12-07T08:36:21;101138.09;;;10.61;100.00
54248;BME280;40161;39.768;2.722;2022-12-07T08:38:49;101145.34;;;10.69;100.00
54248;BME280;40161;39.768;2.722;2022-12-07T08:41:15;101144.81;;;10.79;100.00
54248;BME280;40161;39.768;2.722;2022-12-07T08:43:41;101108.47;;;10.35;100.00
54248;BME280;40161;39.768;2.722;2022-12-07T08:48:40;101167.84;;;10.75;100.00
54248;BME280;40161;39.768;2.722;2022-12-07T08:51:08;101168.88;;;10.86;100.00
54248;BME280;40161;39.768;2.722;2022-12-07T08:53:35;101161.97;;;10.92;100.00
54248;BME280;40161;39.768;2.722;2022-12-07T08:56:01;101168.22;;;11.08;100.00
54248;BME280;40161;39.768;2.722;2022-12-07T08:58:26;101164.03;;;11.14;100.00
54248;BME280;40161;39.768;2.722;2022-12-07T09:00:52;101166.13;;;11.21;100.00
54248;BME280;40161;39.768;2.722;2022-12-07T09:03:18;101169.47;;;11.30;100.00
54248;BME280;40161;39.768;2.722;2022-12-07T09:05:43;101161.25;;;11.30;100.00
54248;BME280;40161;39.768;2.722;2022-12-07T09:08:09;101171.22;;;11.38;100.00
54248;BME280;40161;39.768;2.722;2022-12-07T09:10:35;101144.03;;;11.33;100.00
54248;BME280;40161;39.768;2.722;2022-12-07T09:13:01;101164.34;;;11.48;100.00
54248;BME280;40161;39.768;2.722;2022-12-07T09:15:27;101154.88;;;11.46;100.00
54248;BME280;40161;39.768;2.722;2022-12-07T09:17:53;101173.84;;;11.51;100.00
54248;BME280;40161;39.768;2.722;2022-12-07T09:20:19;101169.06;;;11.48;100.00
54248;BME280;40161;39.768;2.722;2022-12-07T09:22:45;101146.13;;;11.40;100.00
54248;BME280;40161;39.768;2.722;2022-12-07T09:25:12;101144.31;;;11.48;100.00
54248;BME280;40161;39.768;2.722;2022-12-07T09:27:37;101180.94;;;11.71;100.00
54248;BME280;40161;39.768;2.722;2022-12-07T09:30:04;101162.03;;;11.70;100.00
54248;BME280;40161;39.768;2.722;2022-12-07T09:32:30;101164.94;;;11.77;100.00
54248;BME280;40161;39.768;2.722;2022-12-07T09:34:56;101170.22;;;11.85;100.00
54248;BME280;40161;39.768;2.722;2022-12-07T09:37:22;101166.03;;;11.92;100.00
54248;BME280;40161;39.768;2.722;2022-12-07T09:39:47;101168.59;;;12.04;100.00
54248;BME280;40161;39.768;2.722;2022-12-07T09:42:37;101173.94;;;12.16;100.00
54248;BME280;40161;39.768;2.722;2022-12-07T09:45:06;101163.22;;;12.11;100.00
54248;BME280;40161;39.768;2.722;2022-12-07T09:47:33;101177.31;;;12.29;100.00
54248;BME280;40161;39.768;2.722;2022-12-07T09:50:11;101168.69;;;12.30;100.00
54248;BME280;40161;39.768;2.722;2022-12-07T09:52:38;101164.88;;;12.39;100.00
54248;BME280;40161;39.768;2.722;2022-12-07T09:55:12;101185.56;;;12.52;100.00
54248;BME280;40161;39.768;2.722;2022-12-07T09:57:38;101147.34;;;12.47;100.00
54248;BME280;40161;39.768;2.722;2022-12-07T10:00:10;101164.53;;;12.63;100.00
54248;BME280;40161;39.768;2.722;2022-12-07T10:02:39;101137.56;;;12.49;100.00
54248;BME280;40161;39.768;2.722;2022-12-07T10:05:12;101148.00;;;12.63;100.00
54248;BME280;40161;39.768;2.722;2022-12-07T10:07:38;101179.06;;;12.90;100.00
54248;BME280;40161;39.768;2.722;2022-12-07T10:10:13;101152.66;;;12.86;100.00
54248;BME280;40161;39.768;2.722;2022-12-07T10:13:00;101167.91;;;13.06;100.00
54248;BME280;40161;39.768;2.722;2022-12-07T10:23:40;101139.69;;;13.16;100.00
54248;BME280;40161;39.768;2.722;2022-12-07T10:26:35;101147.06;;;13.35;100.00
54248;BME280;40161;39.768;2.722;2022-12-07T10:29:23;101113.41;;;13.22;100.00
54248;BME280;40161;39.768;2.722;2022-12-07T10:34:41;101130.28;;;13.47;100.00
54248;BME280;40161;39.768;2.722;2022-12-07T10:39:51;101150.97;;;13.64;100.00
54248;BME280;40161;39.768;2.722;2022-12-07T10:42:23;101090.47;;;13.45;100.00
54248;BME280;40161;39.768;2.722;2022-12-07T10:44:50;101123.47;;;13.71;100.00
54248;BME280;40161;39.768;2.722;2022-12-07T11:04:33;101106.84;;;14.05;100.00
54248;BME280;40161;39.768;2.722;2022-12-07T11:07:26;101104.13;;;14.09;100.00
54248;BME280;40161;39.768;2.722;2022-12-07T11:13:11;101057.06;;;13.91;100.00
54248;BME280;40161;39.768;2.722;2022-12-07T11:24:17;101077.13;;;14.32;100.00
54248;BME280;40161;39.768;2.722;2022-12-07T11:32:13;101070.56;;;14.51;100.00
54248;BME280;40161;39.768;2.722;2022-12-07T11:37:33;101023.84;;;14.28;97.02
54248;BME280;40161;39.768;2.722;2022-12-07T11:40:05;101064.34;;;14.68;97.80
54248;BME280;40161;39.768;2.722;2022-12-07T11:42:46;101056.06;;;14.68;97.19
54248;BME280;40161;39.768;2.722;2022-12-07T11:45:20;101054.53;;;14.75;97.62
54248;BME280;40161;39.768;2.722;2022-12-07T11:47:48;101051.00;;;14.81;96.89
54248;BME280;40161;39.768;2.722;2022-12-07T11:50:42;101046.28;;;14.85;96.27
54248;BME280;40161;39.768;2.722;2022-12-07T11:58:29;101041.22;;;14.98;95.71
54248;BME280;40161;39.768;2.722;2022-12-07T12:01:28;101043.22;;;15.01;95.42
54248;BME280;40161;39.768;2.722;2022-12-07T12:04:34;101028.97;;;14.99;94.76
54248;BME280;40161;39.768;2.722;2022-12-07T12:07:07;101031.78;;;15.06;94.23
54248;BME280;40161;39.768;2.722;2022-12-07T12:09:48;101027.03;;;15.10;94.82
54248;BME280;40161;39.768;2.722;2022-12-07T12:20:48;100986.75;;;15.02;93.40
54248;BME280;40161;39.768;2.722;2022-12-07T12:25:49;100982.44;;;15.15;92.93
54248;BME280;40161;39.768;2.722;2022-12-07T12:28:29;101000.28;;;15.32;92.14
54248;BME280;40161;39.768;2.722;2022-12-07T12:31:14;100961.91;;;15.09;90.99
54248;BME280;40161;39.768;2.722;2022-12-07T12:33:48;100985.25;;;15.26;90.55
54248;BME280;40161;39.768;2.722;2022-12-07T12:46:57;100973.00;;;15.41;88.75
54248;BME280;40161;39.768;2.722;2022-12-07T12:51:55;100922.44;;;15.23;90.06
54248;BME280;40161;39.768;2.722;2022-12-07T12:54:28;100960.78;;;15.50;90.42
54248;BME280;40161;39.768;2.722;2022-12-07T12:59:42;100967.09;;;15.47;91.55
54248;BME280;40161;39.768;2.722;2022-12-07T13:13:04;100956.44;;;15.59;89.74
54248;BME280;40161;39.768;2.722;2022-12-07T13:15:40;100937.09;;;15.56;89.31
54248;BME280;40161;39.768;2.722;2022-12-07T13:21:38;100944.19;;;15.64;90.18
54248;BME280;40161;39.768;2.722;2022-12-07T13:31:39;100921.66;;;15.55;90.83
54248;BME280;40161;39.768;2.722;2022-12-07T13:36:54;100927.59;;;15.57;90.57
54248;BME280;40161;39.768;2.722;2022-12-07T13:39:23;100884.53;;;15.34;90.23
54248;BME280;40161;39.768;2.722;2022-12-07T13:41:53;100924.44;;;15.58;89.78
54248;BME280;40161;39.768;2.722;2022-12-07T13:44:21;100913.38;;;15.51;89.48
54248;BME280;40161;39.768;2.722;2022-12-07T13:49:31;100912.19;;;15.52;90.11
54248;BME280;40161;39.768;2.722;2022-12-07T13:52:16;100928.38;;;15.64;89.83
54248;BME280;40161;39.768;2.722;2022-12-07T13:57:11;100929.97;;;15.62;90.66
54248;BME280;40161;39.768;2.722;2022-12-07T13:59:37;100893.22;;;15.36;91.23
54248;BME280;40161;39.768;2.722;2022-12-07T14:02:27;100927.97;;;15.55;91.68
54248;BME280;40161;39.768;2.722;2022-12-07T14:05:16;100917.31;;;15.47;91.80
54248;BME280;40161;39.768;2.722;2022-12-07T14:10:55;100931.94;;;15.47;91.79
54248;BME280;40161;39.768;2.722;2022-12-07T14:13:33;100907.84;;;15.37;91.51
54248;BME280;40161;39.768;2.722;2022-12-07T14:16:02;100921.66;;;15.44;92.46
54248;BME280;40161;39.768;2.722;2022-12-07T14:18:39;100929.56;;;15.49;92.30
54248;BME280;40161;39.768;2.722;2022-12-07T14:21:20;100893.63;;;15.31;92.27
54248;BME280;40161;39.768;2.722;2022-12-07T14:26:36;100893.59;;;15.28;92.54
54248;BME280;40161;39.768;2.722;2022-12-07T14:29:21;100935.09;;;15.49;92.40
54248;BME280;40161;39.768;2.722;2022-12-07T14:31:47;100922.06;;;15.39;91.68
54248;BME280;40161;39.768;2.722;2022-12-07T14:34:13;100927.19;;;15.37;91.82
54248;BME280;40161;39.768;2.722;2022-12-07T14:36:39;100927.59;;;15.42;92.02
54248;BME280;40161;39.768;2.722;2022-12-07T14:39:04;100892.81;;;15.20;91.59
54248;BME280;40161;39.768;2.722;2022-12-07T14:41:30;100922.84;;;15.39;92.38
54248;BME280;40161;39.768;2.722;2022-12-07T14:44:14;100920.47;;;15.38;92.52
54248;BME280;40161;39.768;2.722;2022-12-07T14:46:39;100921.66;;;15.37;92.80
54248;BME280;40161;39.768;2.722;2022-12-07T14:49:05;100921.28;;;15.38;93.04
54248;BME280;40161;39.768;2.722;2022-12-07T14:51:31;100874.22;;;15.10;92.54
54248;BME280;40161;39.768;2.722;2022-12-07T14:53:57;100932.34;;;15.38;92.65
54248;BME280;40161;39.768;2.722;2022-12-07T14:56:23;100922.84;;;15.36;92.90
54248;BME280;40161;39.768;2.722;2022-12-07T14:58:48;100916.53;;;15.28;93.45
54248;BME280;40161;39.768;2.722;2022-12-07T15:01:14;100933.91;;;15.32;93.62
54248;BME280;40161;39.768;2.722;2022-12-07T15:03:40;100912.94;;;15.24;94.38
54248;BME280;40161;39.768;2.722;2022-12-07T15:06:06;100932.72;;;15.37;94.98
54248;BME280;40161;39.768;2.722;2022-12-07T15:08:32;100933.13;;;15.35;94.94
54248;BME280;40161;39.768;2.722;2022-12-07T15:10:58;100909.78;;;15.15;95.21
54248;BME280;40161;39.768;2.722;2022-12-07T15:13:24;100940.22;;;15.29;95.44
54248;BME280;40161;39.768;2.722;2022-12-07T15:16:10;100938.25;;;15.26;95.73
54248;BME280;40161;39.768;2.722;2022-12-07T15:18:37;100943.41;;;15.31;96.28